sensor_id;sensor_type;location;lat;lon;timestamp;P1;durP1;ratioP1;P2;durP2;ratioP2
19205;SDS011;59358;52.134;5.596;2022-07-29T00:00:24;3.72;;;1.58;;
19205;SDS011;59358;52.134;5.596;2022-07-29T00:02:51;5.00;;;1.88;;
19205;SDS011;59358;52.134;5.596;2022-07-29T00:05:18;5.03;;;1.90;;
19205;SDS011;59358;52.134;5.596;2022-07-29T00:07:45;5.25;;;2.20;;
19205;SDS011;59358;52.134;5.596;2022-07-29T00:10:12;4.13;;;2.08;;
19205;SDS011;59358;52.134;5.596;2022-07-29T00:12:39;3.20;;;1.80;;
19205;SDS011;59358;52.134;5.596;2022-07-29T00:15:07;3.38;;;1.90;;
19205;SDS011;59358;52.134;5.596;2022-07-29T00:17:34;4.47;;;2.33;;
19205;SDS011;59358;52.134;5.596;2022-07-29T00:20:01;3.88;;;1.95;;
19205;SDS011;59358;52.134;5.596;2022-07-29T00:22:28;3.65;;;1.80;;
19205;SDS011;59358;52.134;5.596;2022-07-29T00:24:55;6.03;;;1.77;;
19205;SDS011;59358;52.134;5.596;2022-07-29T00:27:22;6.10;;;2.13;;
19205;SDS011;59358;52.134;5.596;2022-07-29T00:29:49;4.05;;;1.77;;
19205;SDS011;59358;52.134;5.596;2022-07-29T00:32:17;4.57;;;2.28;;
19205;SDS011;59358;52.134;5.596;2022-07-29T00:34:43;4.43;;;2.00;;
19205;SDS011;59358;52.134;5.596;2022-07-29T00:37:27;3.70;;;2.30;;
19205;SDS011;59358;52.134;5.596;2022-07-29T00:39:54;6.30;;;2.13;;
19205;SDS011;59358;52.134;5.596;2022-07-29T00:42:21;4.13;;;1.67;;
19205;SDS011;59358;52.134;5.596;2022-07-29T00:44:48;4.22;;;1.98;;
19205;SDS011;59358;52.134;5.596;2022-07-29T00:47:14;8.13;;;2.10;;
19205;SDS011;59358;52.134;5.596;2022-07-29T00:49:42;3.70;;;2.10;;
19205;SDS011;59358;52.134;5.596;2022-07-29T00:52:10;3.55;;;2.28;;
19205;SDS011;59358;52.134;5.596;2022-07-29T00:54:38;4.45;;;2.10;;
19205;SDS011;59358;52.134;5.596;2022-07-29T00:57:06;6.20;;;2.58;;
19205;SDS011;59358;52.134;5.596;2022-07-29T00:59:33;4.38;;;1.77;;
19205;SDS011;59358;52.134;5.596;2022-07-29T01:02:00;7.53;;;2.22;;
19205;SDS011;59358;52.134;5.596;2022-07-29T01:04:28;6.43;;;2.53;;
19205;SDS011;59358;52.134;5.596;2022-07-29T01:06:55;6.30;;;1.83;;
19205;SDS011;59358;52.134;5.596;2022-07-29T01:09:22;4.53;;;2.03;;
19205;SDS011;59358;52.134;5.596;2022-07-29T01:11:50;5.88;;;1.88;;
19205;SDS011;59358;52.134;5.596;2022-07-29T01:14:17;3.33;;;2.33;;
19205;SDS011;59358;52.134;5.596;2022-07-29T01:16:45;6.32;;;2.63;;
19205;SDS011;59358;52.134;5.596;2022-07-29T01:19:23;3.80;;;2.20;;
19205;SDS011;59358;52.134;5.596;2022-07-29T01:22:21;4.32;;;2.55;;
19205;SDS011;59358;52.134;5.596;2022-07-29T01:25:02;5.25;;;2.28;;
19205;SDS011;59358;52.134;5.596;2022-07-29T01:27:51;6.88;;;2.50;;
19205;SDS011;59358;52.134;5.596;2022-07-29T01:30:35;3.80;;;2.53;;
19205;SDS011;59358;52.134;5.596;2022-07-29T01:33:06;6.15;;;2.30;;
19205;SDS011;59358;52.134;5.596;2022-07-29T01:35:36;2.72;;;2.40;;
19205;SDS011;59358;52.134;5.596;2022-07-29T01:38:07;4.30;;;2.15;;
19205;SDS011;59358;52.134;5.596;2022-07-29T01:40:38;7.95;;;2.78;;
19205;SDS011;59358;52.134;5.596;2022-07-29T01:43:11;3.97;;;2.22;;
19205;SDS011;59358;52.134;5.596;2022-07-29T01:45:43;6.38;;;2.38;;
19205;SDS011;59358;52.134;5.596;2022-07-29T01:48:15;4.13;;;2.25;;
19205;SDS011;59358;52.134;5.596;2022-07-29T01:50:46;5.25;;;2.58;;
19205;SDS011;59358;52.134;5.596;2022-07-29T01:53:16;4.72;;;2.45;;
19205;SDS011;59358;52.134;5.596;2022-07-29T01:55:50;5.00;;;2.92;;
19205;SDS011;59358;52.134;5.596;2022-07-29T01:58:18;4.80;;;2.50;;
19205;SDS011;59358;52.134;5.596;2022-07-29T02:00:47;3.75;;;2.85;;
19205;SDS011;59358;52.134;5.596;2022-07-29T02:03:15;6.22;;;2.70;;
19205;SDS011;59358;52.134;5.596;2022-07-29T02:05:44;8.65;;;2.97;;
19205;SDS011;59358;52.134;5.596;2022-07-29T02:08:13;2.85;;;2.50;;
19205;SDS011;59358;52.134;5.596;2022-07-29T02:10:42;8.88;;;4.28;;
19205;SDS011;59358;52.134;5.596;2022-07-29T02:13:11;8.18;;;3.22;;
19205;SDS011;59358;52.134;5.596;2022-07-29T02:15:39;6.32;;;3.63;;
19205;SDS011;59358;52.134;5.596;2022-07-29T02:18:16;3.67;;;2.80;;
19205;SDS011;59358;52.134;5.596;2022-07-29T02:20:45;2.92;;;2.42;;
19205;SDS011;59358;52.134;5.596;2022-07-29T02:23:14;5.18;;;2.45;;
19205;SDS011;59358;52.134;5.596;2022-07-29T02:25:44;6.95;;;3.03;;
19205;SDS011;59358;52.134;5.596;2022-07-29T02:28:14;7.35;;;2.78;;
19205;SDS011;59358;52.134;5.596;2022-07-29T02:30:42;4.28;;;2.70;;
19205;SDS011;59358;52.134;5.596;2022-07-29T02:33:12;4.70;;;3.00;;
19205;SDS011;59358;52.134;5.596;2022-07-29T02:35:41;4.28;;;2.40;;
19205;SDS011;59358;52.134;5.596;2022-07-29T02:38:12;3.70;;;2.75;;
19205;SDS011;59358;52.134;5.596;2022-07-29T02:40:58;4.85;;;2.30;;
19205;SDS011;59358;52.134;5.596;2022-07-29T02:43:27;3.13;;;2.55;;
19205;SDS011;59358;52.134;5.596;2022-07-29T02:45:55;6.95;;;2.60;;
19205;SDS011;59358;52.134;5.596;2022-07-29T02:48:27;5.63;;;2.30;;
19205;SDS011;59358;52.134;5.596;2022-07-29T02:51:04;6.07;;;2.80;;
19205;SDS011;59358;52.134;5.596;2022-07-29T02:53:34;4.57;;;2.80;;
19205;SDS011;59358;52.134;5.596;2022-07-29T02:56:04;4.18;;;3.13;;
19205;SDS011;59358;52.134;5.596;2022-07-29T02:58:34;3.65;;;2.90;;
19205;SDS011;59358;52.134;5.596;2022-07-29T03:01:08;6.43;;;3.10;;
19205;SDS011;59358;52.134;5.596;2022-07-29T03:03:39;4.13;;;3.03;;
19205;SDS011;59358;52.134;5.596;2022-07-29T03:06:08;5.13;;;3.10;;
19205;SDS011;59358;52.134;5.596;2022-07-29T03:08:36;8.07;;;3.10;;
19205;SDS011;59358;52.134;5.596;2022-07-29T03:11:03;4.03;;;3.00;;
19205;SDS011;59358;52.134;5.596;2022-07-29T03:13:30;4.72;;;3.05;;
19205;SDS011;59358;52.134;5.596;2022-07-29T03:15:58;5.80;;;3.08;;
19205;SDS011;59358;52.134;5.596;2022-07-29T03:18:25;3.67;;;2.63;;
19205;SDS011;59358;52.134;5.596;2022-07-29T03:20:54;4.00;;;2.85;;
19205;SDS011;59358;52.134;5.596;2022-07-29T03:23:21;11.38;;;3.38;;
19205;SDS011;59358;52.134;5.596;2022-07-29T03:25:49;4.55;;;2.83;;
19205;SDS011;59358;52.134;5.596;2022-07-29T03:28:16;4.15;;;2.78;;
19205;SDS011;59358;52.134;5.596;2022-07-29T03:30:42;5.53;;;3.03;;
19205;SDS011;59358;52.134;5.596;2022-07-29T03:33:09;8.88;;;3.05;;
19205;SDS011;59358;52.134;5.596;2022-07-29T03:35:36;2.97;;;2.60;;
19205;SDS011;59358;52.134;5.596;2022-07-29T03:38:04;4.03;;;2.78;;
19205;SDS011;59358;52.134;5.596;2022-07-29T03:40:32;5.05;;;2.65;;
19205;SDS011;59358;52.134;5.596;2022-07-29T03:43:03;10.60;;;3.47;;
19205;SDS011;59358;52.134;5.596;2022-07-29T03:45:31;6.97;;;2.83;;
19205;SDS011;59358;52.134;5.596;2022-07-29T03:48:01;4.82;;;3.00;;
19205;SDS011;59358;52.134;5.596;2022-07-29T03:50:32;4.82;;;3.00;;
19205;SDS011;59358;52.134;5.596;2022-07-29T03:53:01;5.50;;;3.17;;
19205;SDS011;59358;52.134;5.596;2022-07-29T03:55:41;6.55;;;3.00;;
19205;SDS011;59358;52.134;5.596;2022-07-29T03:58:10;2.45;;;2.25;;
19205;SDS011;59358;52.134;5.596;2022-07-29T04:00:38;5.97;;;3.08;;
19205;SDS011;59358;52.134;5.596;2022-07-29T04:03:06;6.90;;;2.60;;
19205;SDS011;59358;52.134;5.596;2022-07-29T04:05:33;7.05;;;2.83;;
19205;SDS011;59358;52.134;5.596;2022-07-29T04:08:00;2.90;;;2.60;;
19205;SDS011;59358;52.134;5.596;2022-07-29T04:10:26;6.63;;;2.85;;
19205;SDS011;59358;52.134;5.596;2022-07-29T04:12:55;5.18;;;2.50;;
19205;SDS011;59358;52.134;5.596;2022-07-29T04:15:21;2.67;;;2.13;;
19205;SDS011;59358;52.134;5.596;2022-07-29T04:17:48;5.43;;;2.70;;
19205;SDS011;59358;52.134;5.596;2022-07-29T04:20:15;5.97;;;2.78;;
19205;SDS011;59358;52.134;5.596;2022-07-29T04:22:42;10.02;;;2.30;;
19205;SDS011;59358;52.134;5.596;2022-07-29T04:25:09;3.72;;;2.15;;
19205;SDS011;59358;52.134;5.596;2022-07-29T04:27:35;2.13;;;1.90;;
19205;SDS011;59358;52.134;5.596;2022-07-29T04:30:23;9.27;;;2.65;;
19205;SDS011;59358;52.134;5.596;2022-07-29T04:32:50;4.43;;;2.10;;
19205;SDS011;59358;52.134;5.596;2022-07-29T04:35:17;5.57;;;2.42;;
19205;SDS011;59358;52.134;5.596;2022-07-29T04:37:44;7.15;;;2.88;;
19205;SDS011;59358;52.134;5.596;2022-07-29T04:40:11;4.90;;;2.92;;
19205;SDS011;59358;52.134;5.596;2022-07-29T04:42:38;3.60;;;2.00;;
19205;SDS011;59358;52.134;5.596;2022-07-29T04:45:05;6.75;;;2.35;;
19205;SDS011;59358;52.134;5.596;2022-07-29T04:47:34;5.80;;;2.47;;
19205;SDS011;59358;52.134;5.596;2022-07-29T04:50:01;5.05;;;2.40;;
19205;SDS011;59358;52.134;5.596;2022-07-29T04:52:28;7.55;;;2.33;;
19205;SDS011;59358;52.134;5.596;2022-07-29T04:54:54;7.57;;;2.60;;
19205;SDS011;59358;52.134;5.596;2022-07-29T04:57:21;3.97;;;2.63;;
19205;SDS011;59358;52.134;5.596;2022-07-29T04:59:48;4.95;;;2.70;;
19205;SDS011;59358;52.134;5.596;2022-07-29T05:02:15;4.38;;;2.55;;
19205;SDS011;59358;52.134;5.596;2022-07-29T05:04:43;7.72;;;2.90;;
19205;SDS011;59358;52.134;5.596;2022-07-29T05:07:10;4.85;;;2.88;;
19205;SDS011;59358;52.134;5.596;2022-07-29T05:09:36;4.85;;;2.85;;
19205;SDS011;59358;52.134;5.596;2022-07-29T05:12:03;7.47;;;2.67;;
19205;SDS011;59358;52.134;5.596;2022-07-29T05:14:30;6.40;;;2.80;;
19205;SDS011;59358;52.134;5.596;2022-07-29T05:16:57;5.07;;;3.42;;
19205;SDS011;59358;52.134;5.596;2022-07-29T05:19:24;5.07;;;2.70;;
19205;SDS011;59358;52.134;5.596;2022-07-29T05:21:52;5.43;;;2.72;;
19205;SDS011;59358;52.134;5.596;2022-07-29T05:24:19;7.47;;;2.70;;
19205;SDS011;59358;52.134;5.596;2022-07-29T05:26:46;3.97;;;2.75;;
19205;SDS011;59358;52.134;5.596;2022-07-29T05:29:12;6.00;;;2.58;;
19205;SDS011;59358;52.134;5.596;2022-07-29T05:31:40;5.90;;;2.85;;
19205;SDS011;59358;52.134;5.596;2022-07-29T05:34:06;5.35;;;2.95;;
19205;SDS011;59358;52.134;5.596;2022-07-29T05:36:33;7.60;;;2.88;;
19205;SDS011;59358;52.134;5.596;2022-07-29T05:39:01;11.05;;;2.90;;
19205;SDS011;59358;52.134;5.596;2022-07-29T05:41:31;8.02;;;3.47;;
19205;SDS011;59358;52.134;5.596;2022-07-29T05:43:58;8.68;;;3.15;;
19205;SDS011;59358;52.134;5.596;2022-07-29T05:46:25;3.13;;;2.60;;
19205;SDS011;59358;52.134;5.596;2022-07-29T05:48:52;3.40;;;2.55;;
19205;SDS011;59358;52.134;5.596;2022-07-29T05:51:18;3.90;;;2.80;;
19205;SDS011;59358;52.134;5.596;2022-07-29T05:53:45;6.85;;;2.95;;
19205;SDS011;59358;52.134;5.596;2022-07-29T05:56:13;4.78;;;2.88;;
19205;SDS011;59358;52.134;5.596;2022-07-29T05:58:40;3.47;;;3.17;;
19205;SDS011;59358;52.134;5.596;2022-07-29T06:01:08;3.72;;;2.58;;
19205;SDS011;59358;52.134;5.596;2022-07-29T06:03:35;6.97;;;3.45;;
19205;SDS011;59358;52.134;5.596;2022-07-29T06:06:02;5.45;;;3.20;;
19205;SDS011;59358;52.134;5.596;2022-07-29T06:08:30;5.45;;;2.88;;
19205;SDS011;59358;52.134;5.596;2022-07-29T06:10:59;9.88;;;3.20;;
19205;SDS011;59358;52.134;5.596;2022-07-29T06:13:27;7.32;;;3.05;;
19205;SDS011;59358;52.134;5.596;2022-07-29T06:15:55;7.03;;;3.67;;
19205;SDS011;59358;52.134;5.596;2022-07-29T06:18:22;8.50;;;3.70;;
19205;SDS011;59358;52.134;5.596;2022-07-29T06:20:49;7.55;;;3.20;;
19205;SDS011;59358;52.134;5.596;2022-07-29T06:23:16;6.40;;;3.40;;
19205;SDS011;59358;52.134;5.596;2022-07-29T06:25:43;4.50;;;3.17;;
19205;SDS011;59358;52.134;5.596;2022-07-29T06:28:10;8.00;;;3.67;;
19205;SDS011;59358;52.134;5.596;2022-07-29T06:30:38;6.30;;;3.33;;
19205;SDS011;59358;52.134;5.596;2022-07-29T06:33:06;5.53;;;2.80;;
19205;SDS011;59358;52.134;5.596;2022-07-29T06:35:33;6.07;;;2.88;;
19205;SDS011;59358;52.134;5.596;2022-07-29T06:38:01;3.72;;;3.10;;
19205;SDS011;59358;52.134;5.596;2022-07-29T06:40:28;4.97;;;3.08;;
19205;SDS011;59358;52.134;5.596;2022-07-29T06:43:12;5.32;;;2.60;;
19205;SDS011;59358;52.134;5.596;2022-07-29T06:45:41;4.95;;;3.20;;
19205;SDS011;59358;52.134;5.596;2022-07-29T06:48:08;4.43;;;3.13;;
19205;SDS011;59358;52.134;5.596;2022-07-29T06:50:35;4.15;;;2.97;;
19205;SDS011;59358;52.134;5.596;2022-07-29T06:53:01;5.00;;;3.15;;
19205;SDS011;59358;52.134;5.596;2022-07-29T06:55:29;6.97;;;3.22;;
19205;SDS011;59358;52.134;5.596;2022-07-29T06:57:55;8.45;;;3.63;;
19205;SDS011;59358;52.134;5.596;2022-07-29T07:00:22;8.18;;;3.13;;
19205;SDS011;59358;52.134;5.596;2022-07-29T07:02:50;6.57;;;3.17;;
19205;SDS011;59358;52.134;5.596;2022-07-29T07:05:17;7.15;;;3.42;;
19205;SDS011;59358;52.134;5.596;2022-07-29T07:07:44;5.80;;;3.40;;
19205;SDS011;59358;52.134;5.596;2022-07-29T07:10:10;9.85;;;3.67;;
19205;SDS011;59358;52.134;5.596;2022-07-29T07:12:37;4.63;;;3.35;;
19205;SDS011;59358;52.134;5.596;2022-07-29T07:15:04;8.15;;;3.25;;
19205;SDS011;59358;52.134;5.596;2022-07-29T07:17:32;5.03;;;3.25;;
19205;SDS011;59358;52.134;5.596;2022-07-29T07:20:00;8.68;;;3.25;;
19205;SDS011;59358;52.134;5.596;2022-07-29T07:22:27;8.68;;;2.92;;
19205;SDS011;59358;52.134;5.596;2022-07-29T07:24:54;6.45;;;3.28;;
19205;SDS011;59358;52.134;5.596;2022-07-29T07:27:20;7.45;;;3.10;;
19205;SDS011;59358;52.134;5.596;2022-07-29T07:29:47;5.88;;;3.28;;
19205;SDS011;59358;52.134;5.596;2022-07-29T07:32:14;4.18;;;2.95;;
19205;SDS011;59358;52.134;5.596;2022-07-29T07:34:42;5.57;;;3.05;;
19205;SDS011;59358;52.134;5.596;2022-07-29T07:37:10;5.78;;;3.47;;
19205;SDS011;59358;52.134;5.596;2022-07-29T07:39:37;3.92;;;2.97;;
19205;SDS011;59358;52.134;5.596;2022-07-29T07:42:03;8.23;;;3.65;;
19205;SDS011;59358;52.134;5.596;2022-07-29T07:44:30;5.25;;;3.30;;
19205;SDS011;59358;52.134;5.596;2022-07-29T07:46:57;3.25;;;2.88;;
19205;SDS011;59358;52.134;5.596;2022-07-29T07:49:24;7.15;;;3.60;;
19205;SDS011;59358;52.134;5.596;2022-07-29T07:51:51;5.88;;;3.47;;
19205;SDS011;59358;52.134;5.596;2022-07-29T07:54:19;5.50;;;3.30;;
19205;SDS011;59358;52.134;5.596;2022-07-29T07:56:46;5.88;;;3.05;;
19205;SDS011;59358;52.134;5.596;2022-07-29T07:59:14;8.27;;;3.17;;
19205;SDS011;59358;52.134;5.596;2022-07-29T08:01:41;8.88;;;4.45;;
19205;SDS011;59358;52.134;5.596;2022-07-29T08:04:08;7.00;;;4.13;;
19205;SDS011;59358;52.134;5.596;2022-07-29T08:06:34;7.03;;;3.55;;
19205;SDS011;59358;52.134;5.596;2022-07-29T08:09:02;4.20;;;2.78;;
19205;SDS011;59358;52.134;5.596;2022-07-29T08:11:31;3.25;;;2.90;;
19205;SDS011;59358;52.134;5.596;2022-07-29T08:13:58;6.78;;;3.08;;
19205;SDS011;59358;52.134;5.596;2022-07-29T08:16:26;6.20;;;3.55;;
19205;SDS011;59358;52.134;5.596;2022-07-29T08:18:53;4.38;;;2.75;;
19205;SDS011;59358;52.134;5.596;2022-07-29T08:21:22;6.53;;;3.15;;
19205;SDS011;59358;52.134;5.596;2022-07-29T08:23:50;5.05;;;2.80;;
19205;SDS011;59358;52.134;5.596;2022-07-29T08:26:39;2.83;;;2.40;;
19205;SDS011;59358;52.134;5.596;2022-07-29T08:29:06;6.32;;;2.83;;
19205;SDS011;59358;52.134;5.596;2022-07-29T08:31:33;5.95;;;2.60;;
19205;SDS011;59358;52.134;5.596;2022-07-29T08:34:00;5.50;;;2.72;;
19205;SDS011;59358;52.134;5.596;2022-07-29T08:36:27;6.82;;;3.03;;
19205;SDS011;59358;52.134;5.596;2022-07-29T08:38:54;5.63;;;2.72;;
19205;SDS011;59358;52.134;5.596;2022-07-29T08:41:21;3.60;;;2.47;;
19205;SDS011;59358;52.134;5.596;2022-07-29T08:43:49;7.10;;;2.67;;
19205;SDS011;59358;52.134;5.596;2022-07-29T08:46:17;8.85;;;2.58;;
19205;SDS011;59358;52.134;5.596;2022-07-29T08:48:45;3.95;;;2.22;;
19205;SDS011;59358;52.134;5.596;2022-07-29T08:51:12;4.03;;;2.70;;
19205;SDS011;59358;52.134;5.596;2022-07-29T08:53:40;4.70;;;2.88;;
19205;SDS011;59358;52.134;5.596;2022-07-29T08:56:11;4.63;;;2.67;;
19205;SDS011;59358;52.134;5.596;2022-07-29T08:58:38;4.78;;;2.90;;
19205;SDS011;59358;52.134;5.596;2022-07-29T09:01:07;11.27;;;2.78;;
19205;SDS011;59358;52.134;5.596;2022-07-29T09:03:36;6.85;;;2.95;;
19205;SDS011;59358;52.134;5.596;2022-07-29T09:06:04;6.78;;;2.15;;
19205;SDS011;59358;52.134;5.596;2022-07-29T09:08:32;5.30;;;2.58;;
19205;SDS011;59358;52.134;5.596;2022-07-29T09:11:00;4.78;;;3.20;;
19205;SDS011;59358;52.134;5.596;2022-07-29T09:13:28;9.23;;;3.00;;
19205;SDS011;59358;52.134;5.596;2022-07-29T09:15:55;3.65;;;2.70;;
19205;SDS011;59358;52.134;5.596;2022-07-29T09:18:36;5.85;;;3.00;;
19205;SDS011;59358;52.134;5.596;2022-07-29T09:21:05;5.18;;;2.85;;
19205;SDS011;59358;52.134;5.596;2022-07-29T09:23:59;8.57;;;3.60;;
19205;SDS011;59358;52.134;5.596;2022-07-29T09:26:28;3.47;;;2.67;;
19205;SDS011;59358;52.134;5.596;2022-07-29T09:28:56;6.82;;;3.38;;
19205;SDS011;59358;52.134;5.596;2022-07-29T09:31:27;3.78;;;3.30;;
19205;SDS011;59358;52.134;5.596;2022-07-29T09:34:00;5.18;;;2.88;;
19205;SDS011;59358;52.134;5.596;2022-07-29T09:36:28;9.00;;;3.58;;
19205;SDS011;59358;52.134;5.596;2022-07-29T09:38:58;5.82;;;3.58;;
19205;SDS011;59358;52.134;5.596;2022-07-29T09:41:25;8.00;;;3.63;;
19205;SDS011;59358;52.134;5.596;2022-07-29T09:43:53;8.18;;;3.30;;
19205;SDS011;59358;52.134;5.596;2022-07-29T09:46:21;4.85;;;3.00;;
19205;SDS011;59358;52.134;5.596;2022-07-29T09:49:06;7.75;;;3.22;;
19205;SDS011;59358;52.134;5.596;2022-07-29T09:51:33;7.88;;;3.15;;
19205;SDS011;59358;52.134;5.596;2022-07-29T09:54:00;4.50;;;2.90;;
19205;SDS011;59358;52.134;5.596;2022-07-29T09:56:39;8.13;;;3.25;;
19205;SDS011;59358;52.134;5.596;2022-07-29T09:59:06;8.00;;;3.47;;
19205;SDS011;59358;52.134;5.596;2022-07-29T10:01:33;4.97;;;3.65;;
19205;SDS011;59358;52.134;5.596;2022-07-29T10:04:00;4.95;;;3.33;;
19205;SDS011;59358;52.134;5.596;2022-07-29T10:06:29;12.00;;;4.47;;
19205;SDS011;59358;52.134;5.596;2022-07-29T10:09:06;7.90;;;3.78;;
19205;SDS011;59358;52.134;5.596;2022-07-29T10:11:34;8.93;;;4.32;;
19205;SDS011;59358;52.134;5.596;2022-07-29T10:14:01;9.75;;;4.32;;
19205;SDS011;59358;52.134;5.596;2022-07-29T10:16:29;9.85;;;3.30;;
19205;SDS011;59358;52.134;5.596;2022-07-29T10:18:57;5.07;;;3.40;;
19205;SDS011;59358;52.134;5.596;2022-07-29T10:21:26;6.18;;;3.60;;
19205;SDS011;59358;52.134;5.596;2022-07-29T10:23:54;11.73;;;4.22;;
19205;SDS011;59358;52.134;5.596;2022-07-29T10:26:24;5.30;;;3.00;;
19205;SDS011;59358;52.134;5.596;2022-07-29T10:28:52;4.90;;;3.03;;
19205;SDS011;59358;52.134;5.596;2022-07-29T10:31:21;6.22;;;2.63;;
19205;SDS011;59358;52.134;5.596;2022-07-29T10:33:55;10.10;;;3.22;;
19205;SDS011;59358;52.134;5.596;2022-07-29T10:36:34;10.25;;;3.85;;
19205;SDS011;59358;52.134;5.596;2022-07-29T10:39:13;6.65;;;2.60;;
19205;SDS011;59358;52.134;5.596;2022-07-29T10:41:56;5.63;;;2.88;;
19205;SDS011;59358;52.134;5.596;2022-07-29T10:44:32;4.38;;;3.22;;
19205;SDS011;59358;52.134;5.596;2022-07-29T10:46:59;6.10;;;3.58;;
19205;SDS011;59358;52.134;5.596;2022-07-29T10:49:26;7.13;;;3.22;;
19205;SDS011;59358;52.134;5.596;2022-07-29T10:51:58;6.13;;;3.03;;
19205;SDS011;59358;52.134;5.596;2022-07-29T10:54:41;6.18;;;3.42;;
19205;SDS011;59358;52.134;5.596;2022-07-29T10:57:14;5.32;;;3.47;;
19205;SDS011;59358;52.134;5.596;2022-07-29T10:59:44;4.30;;;3.22;;
19205;SDS011;59358;52.134;5.596;2022-07-29T11:05:08;4.60;;;2.85;;
19205;SDS011;59358;52.134;5.596;2022-07-29T11:07:37;7.68;;;3.53;;
19205;SDS011;59358;52.134;5.596;2022-07-29T11:10:23;8.43;;;4.53;;
19205;SDS011;59358;52.134;5.596;2022-07-29T11:12:50;4.85;;;3.47;;
19205;SDS011;59358;52.134;5.596;2022-07-29T11:15:17;5.93;;;3.45;;
19205;SDS011;59358;52.134;5.596;2022-07-29T11:20:35;7.13;;;3.42;;
19205;SDS011;59358;52.134;5.596;2022-07-29T11:23:19;11.32;;;3.50;;
19205;SDS011;59358;52.134;5.596;2022-07-29T11:28:52;7.28;;;3.67;;
19205;SDS011;59358;52.134;5.596;2022-07-29T11:31:37;8.65;;;3.30;;
19205;SDS011;59358;52.134;5.596;2022-07-29T11:34:15;6.35;;;3.22;;
19205;SDS011;59358;52.134;5.596;2022-07-29T11:39:42;6.75;;;3.30;;
19205;SDS011;59358;52.134;5.596;2022-07-29T11:45:06;5.75;;;3.53;;
19205;SDS011;59358;52.134;5.596;2022-07-29T11:47:36;7.55;;;3.72;;
19205;SDS011;59358;52.134;5.596;2022-07-29T11:50:04;15.98;;;3.80;;
19205;SDS011;59358;52.134;5.596;2022-07-29T11:52:33;7.28;;;3.50;;
19205;SDS011;59358;52.134;5.596;2022-07-29T11:55:02;5.50;;;2.92;;
19205;SDS011;59358;52.134;5.596;2022-07-29T11:57:30;12.13;;;3.60;;
19205;SDS011;59358;52.134;5.596;2022-07-29T12:00:00;5.30;;;3.25;;
19205;SDS011;59358;52.134;5.596;2022-07-29T12:02:37;4.28;;;3.17;;
19205;SDS011;59358;52.134;5.596;2022-07-29T12:05:07;8.65;;;3.35;;
19205;SDS011;59358;52.134;5.596;2022-07-29T12:07:34;6.70;;;3.00;;
19205;SDS011;59358;52.134;5.596;2022-07-29T12:10:02;7.72;;;3.35;;
19205;SDS011;59358;52.134;5.596;2022-07-29T12:12:29;6.63;;;3.65;;
19205;SDS011;59358;52.134;5.596;2022-07-29T12:14:56;13.45;;;4.15;;
19205;SDS011;59358;52.134;5.596;2022-07-29T12:17:28;6.78;;;3.88;;
19205;SDS011;59358;52.134;5.596;2022-07-29T12:19:56;5.63;;;3.50;;
19205;SDS011;59358;52.134;5.596;2022-07-29T12:22:24;10.00;;;3.63;;
19205;SDS011;59358;52.134;5.596;2022-07-29T12:24:52;5.65;;;3.28;;
19205;SDS011;59358;52.134;5.596;2022-07-29T12:27:19;5.70;;;3.47;;
19205;SDS011;59358;52.134;5.596;2022-07-29T12:29:54;7.60;;;3.70;;
19205;SDS011;59358;52.134;5.596;2022-07-29T12:32:24;4.93;;;3.28;;
19205;SDS011;59358;52.134;5.596;2022-07-29T12:34:59;7.10;;;3.47;;
19205;SDS011;59358;52.134;5.596;2022-07-29T12:37:29;6.65;;;3.47;;
19205;SDS011;59358;52.134;5.596;2022-07-29T12:39:56;7.85;;;3.85;;
19205;SDS011;59358;52.134;5.596;2022-07-29T12:42:23;6.03;;;3.65;;
19205;SDS011;59358;52.134;5.596;2022-07-29T12:44:50;5.05;;;4.10;;
19205;SDS011;59358;52.134;5.596;2022-07-29T12:47:17;10.40;;;3.95;;
19205;SDS011;59358;52.134;5.596;2022-07-29T12:49:46;6.35;;;3.92;;
19205;SDS011;59358;52.134;5.596;2022-07-29T12:52:23;6.78;;;4.20;;
19205;SDS011;59358;52.134;5.596;2022-07-29T12:54:53;6.57;;;3.13;;
19205;SDS011;59358;52.134;5.596;2022-07-29T12:57:20;10.60;;;3.17;;
19205;SDS011;59358;52.134;5.596;2022-07-29T13:00:06;9.05;;;3.90;;
19205;SDS011;59358;52.134;5.596;2022-07-29T13:02:35;9.40;;;3.22;;
19205;SDS011;59358;52.134;5.596;2022-07-29T13:05:05;7.03;;;3.70;;
19205;SDS011;59358;52.134;5.596;2022-07-29T13:07:33;5.55;;;3.97;;
19205;SDS011;59358;52.134;5.596;2022-07-29T13:10:11;5.47;;;3.30;;
19205;SDS011;59358;52.134;5.596;2022-07-29T13:15:29;9.05;;;3.72;;
19205;SDS011;59358;52.134;5.596;2022-07-29T13:17:56;12.00;;;3.85;;
19205;SDS011;59358;52.134;5.596;2022-07-29T13:20:25;9.52;;;4.72;;
19205;SDS011;59358;52.134;5.596;2022-07-29T13:22:54;7.90;;;4.20;;
19205;SDS011;59358;52.134;5.596;2022-07-29T13:25:25;12.90;;;4.70;;
19205;SDS011;59358;52.134;5.596;2022-07-29T13:27:53;6.68;;;3.80;;
19205;SDS011;59358;52.134;5.596;2022-07-29T13:30:21;7.13;;;3.40;;
19205;SDS011;59358;52.134;5.596;2022-07-29T13:32:48;7.28;;;4.25;;
19205;SDS011;59358;52.134;5.596;2022-07-29T13:35:16;7.40;;;3.70;;
19205;SDS011;59358;52.134;5.596;2022-07-29T13:37:44;7.22;;;3.55;;
19205;SDS011;59358;52.134;5.596;2022-07-29T13:40:11;7.75;;;3.70;;
19205;SDS011;59358;52.134;5.596;2022-07-29T13:42:40;6.10;;;3.85;;
19205;SDS011;59358;52.134;5.596;2022-07-29T13:45:07;8.57;;;3.75;;
19205;SDS011;59358;52.134;5.596;2022-07-29T13:47:35;6.43;;;3.13;;
19205;SDS011;59358;52.134;5.596;2022-07-29T13:50:03;5.35;;;2.95;;
19205;SDS011;59358;52.134;5.596;2022-07-29T13:52:31;5.88;;;3.17;;
19205;SDS011;59358;52.134;5.596;2022-07-29T13:55:00;7.60;;;2.33;;
19205;SDS011;59358;52.134;5.596;2022-07-29T13:57:27;6.53;;;3.60;;
19205;SDS011;59358;52.134;5.596;2022-07-29T13:59:54;6.95;;;3.17;;
19205;SDS011;59358;52.134;5.596;2022-07-29T14:02:21;5.03;;;3.45;;
19205;SDS011;59358;52.134;5.596;2022-07-29T14:04:49;6.70;;;3.03;;
19205;SDS011;59358;52.134;5.596;2022-07-29T14:07:16;6.68;;;2.90;;
19205;SDS011;59358;52.134;5.596;2022-07-29T14:09:43;7.13;;;3.67;;
19205;SDS011;59358;52.134;5.596;2022-07-29T14:12:11;4.47;;;2.83;;
19205;SDS011;59358;52.134;5.596;2022-07-29T14:14:38;4.72;;;2.97;;
19205;SDS011;59358;52.134;5.596;2022-07-29T14:17:04;5.80;;;3.08;;
19205;SDS011;59358;52.134;5.596;2022-07-29T14:19:32;8.02;;;3.30;;
19205;SDS011;59358;52.134;5.596;2022-07-29T14:22:00;6.88;;;2.88;;
19205;SDS011;59358;52.134;5.596;2022-07-29T14:24:31;6.22;;;3.15;;
19205;SDS011;59358;52.134;5.596;2022-07-29T14:26:58;5.28;;;2.70;;
19205;SDS011;59358;52.134;5.596;2022-07-29T14:29:26;8.35;;;2.95;;
19205;SDS011;59358;52.134;5.596;2022-07-29T14:31:53;9.13;;;2.95;;
19205;SDS011;59358;52.134;5.596;2022-07-29T14:34:20;5.80;;;2.63;;
19205;SDS011;59358;52.134;5.596;2022-07-29T14:36:48;7.68;;;3.17;;
19205;SDS011;59358;52.134;5.596;2022-07-29T14:39:15;6.13;;;2.40;;
19205;SDS011;59358;52.134;5.596;2022-07-29T14:41:42;4.05;;;2.72;;
19205;SDS011;59358;52.134;5.596;2022-07-29T14:44:12;6.70;;;3.08;;
19205;SDS011;59358;52.134;5.596;2022-07-29T14:46:40;6.80;;;2.30;;
19205;SDS011;59358;52.134;5.596;2022-07-29T14:49:07;6.55;;;2.42;;
19205;SDS011;59358;52.134;5.596;2022-07-29T14:51:33;4.55;;;2.15;;
19205;SDS011;59358;52.134;5.596;2022-07-29T14:54:01;6.72;;;2.42;;
19205;SDS011;59358;52.134;5.596;2022-07-29T14:56:27;5.25;;;2.10;;
19205;SDS011;59358;52.134;5.596;2022-07-29T14:58:55;3.95;;;2.30;;
19205;SDS011;59358;52.134;5.596;2022-07-29T15:01:24;7.60;;;2.58;;
19205;SDS011;59358;52.134;5.596;2022-07-29T15:03:52;3.92;;;2.17;;
19205;SDS011;59358;52.134;5.596;2022-07-29T15:06:19;5.10;;;2.42;;
19205;SDS011;59358;52.134;5.596;2022-07-29T15:08:46;5.53;;;2.40;;
19205;SDS011;59358;52.134;5.596;2022-07-29T15:11:12;7.95;;;2.60;;
19205;SDS011;59358;52.134;5.596;2022-07-29T15:13:39;6.82;;;2.58;;
19205;SDS011;59358;52.134;5.596;2022-07-29T15:16:06;8.85;;;2.60;;